Accueil
METAR-TAF:

METAR-TAF

Aéroports :

Aéroport international de Minneapolis-Saint-Paul

Minneapolis, Minnesota, États-Unis

latitude: 44-52-59N, longitude: 093-13-44W, altitude: 256 m

Observation

Le bulletin a été fait il y a 37 minutes, à 03:53 UTC
Vent 3 kt de nord-est
Température 19°C
Humidité 73%
Pression 1016 hPa
Visibilité: 16.1 km
Ciel clair

METAR: KMSP 150353Z 04003KT 10SM CLR 19/14 A3000 RMK AO2 SLP155 T01940144

Heure: 23:30 (04:30 UTC)

Prévision

Le bulletin a été fait il y a 1 heure et 39 minutes, à 02:51 UTC
Prévision valable du 15 à 03 UTC au 16 à 06 UTC
Vent 5 kt de nord-ouest
Visibilité: 10 km
Quelques nuages à une hauteur de 5000 ft
A partir de 15 à 1500 UTC
Vent 6 kt de sud/sud-ouest
Visibilité: 10 km
Nuages épars à une hauteur de 20000 ft

TAF: KMSP 150251Z 1503/1606 31005KT P6SM FEW050 FM151500 20006KT P6SM SCT200

Observations et prévisions météorologiques de plus de 4000 aéroports (messages METAR et TAF).

Les stations disponibles sont représentées par des disques jaunes et rouges sur la carte.

Passer la souris dessus pour voir le nom de la station.

Cliquer dessus pour voir les observations et prévisions météorologiques.

Pour changer de carte: cliquez sur les boutons verts avec une croix noire pour zoomer, sur le bouton vert avec un tiret pour effectuer un zoom arrière, ou sur les flèches vertes pour les cartes adjacentes.


METAR-TAF: